sensor_id;sensor_type;location;lat;lon;timestamp;pressure;altitude;pressure_sealevel;temperature;humidity
70407;BME280;57821;52.202;0.154;2024-03-22T00:01:46;101985.03;;;12.61;64.57
70407;BME280;57821;52.202;0.154;2024-03-22T00:04:15;101990.25;;;12.58;64.07
70407;BME280;57821;52.202;0.154;2024-03-22T00:06:42;101970.25;;;12.55;64.06
70407;BME280;57821;52.202;0.154;2024-03-22T00:09:08;101963.31;;;12.51;64.64
70407;BME280;57821;52.202;0.154;2024-03-22T00:11:34;101966.78;;;12.52;64.19
70407;BME280;57821;52.202;0.154;2024-03-22T00:14:01;101953.72;;;12.49;64.40
70407;BME280;57821;52.202;0.154;2024-03-22T00:16:27;101956.25;;;12.41;64.42
70407;BME280;57821;52.202;0.154;2024-03-22T00:18:53;101957.19;;;12.45;64.96
70407;BME280;57821;52.202;0.154;2024-03-22T00:21:18;101953.69;;;12.43;64.17
70407;BME280;57821;52.202;0.154;2024-03-22T00:23:45;101953.66;;;12.41;64.82
70407;BME280;57821;52.202;0.154;2024-03-22T00:26:11;101946.72;;;12.39;64.25
70407;BME280;57821;52.202;0.154;2024-03-22T00:28:36;101948.44;;;12.37;64.53
70407;BME280;57821;52.202;0.154;2024-03-22T00:31:02;101948.44;;;12.33;64.42
70407;BME280;57821;52.202;0.154;2024-03-22T00:33:28;101934.53;;;12.31;64.42
70407;BME280;57821;52.202;0.154;2024-03-22T00:35:54;101931.91;;;12.27;64.62
70407;BME280;57821;52.202;0.154;2024-03-22T00:38:20;101932.78;;;12.27;64.69
70407;BME280;57821;52.202;0.154;2024-03-22T00:40:45;101941.38;;;12.23;64.88
70407;BME280;57821;52.202;0.154;2024-03-22T00:43:11;101925.78;;;12.20;65.28
70407;BME280;57821;52.202;0.154;2024-03-22T00:45:37;101931.81;;;12.19;65.22
70407;BME280;57821;52.202;0.154;2024-03-22T00:48:02;101927.47;;;12.18;65.48
70407;BME280;57821;52.202;0.154;2024-03-22T00:50:28;101918.78;;;12.13;65.82
70407;BME280;57821;52.202;0.154;2024-03-22T00:52:54;101929.19;;;12.15;65.90
70407;BME280;57821;52.202;0.154;2024-03-22T00:55:23;101916.19;;;12.13;65.85
70407;BME280;57821;52.202;0.154;2024-03-22T00:57:49;101905.72;;;12.07;66.26
70407;BME280;57821;52.202;0.154;2024-03-22T01:02:16;101899.72;;;12.11;66.61
70407;BME280;57821;52.202;0.154;2024-03-22T01:04:42;101903.16;;;12.10;65.87
70407;BME280;57821;52.202;0.154;2024-03-22T01:07:08;101882.31;;;12.04;66.09
70407;BME280;57821;52.202;0.154;2024-03-22T01:09:33;101897.09;;;12.10;66.51
70407;BME280;57821;52.202;0.154;2024-03-22T01:11:59;101894.50;;;12.10;66.67
70407;BME280;57821;52.202;0.154;2024-03-22T01:14:25;101888.38;;;12.06;67.13
70407;BME280;57821;52.202;0.154;2024-03-22T01:16:51;101880.56;;;12.06;67.17
70407;BME280;57821;52.202;0.154;2024-03-22T01:19:16;101882.31;;;12.07;67.57
70407;BME280;57821;52.202;0.154;2024-03-22T01:21:42;101882.38;;;12.10;67.62
70407;BME280;57821;52.202;0.154;2024-03-22T01:24:08;101869.38;;;12.10;67.13
70407;BME280;57821;52.202;0.154;2024-03-22T01:26:33;101866.72;;;12.07;67.83
70407;BME280;57821;52.202;0.154;2024-03-22T01:28:59;101870.19;;;12.06;67.36
70407;BME280;57821;52.202;0.154;2024-03-22T01:31:25;101873.66;;;12.05;67.17
70407;BME280;57821;52.202;0.154;2024-03-22T01:33:50;101866.72;;;12.04;67.81
70407;BME280;57821;52.202;0.154;2024-03-22T01:36:16;101864.09;;;12.00;67.70
70407;BME280;57821;52.202;0.154;2024-03-22T01:38:42;101874.47;;;12.01;68.20
70407;BME280;57821;52.202;0.154;2024-03-22T01:41:08;101880.53;;;12.00;67.21
70407;BME280;57821;52.202;0.154;2024-03-22T01:43:33;101874.47;;;12.01;67.35
70407;BME280;57821;52.202;0.154;2024-03-22T01:45:59;101871.91;;;12.04;67.49
70407;BME280;57821;52.202;0.154;2024-03-22T01:48:25;101871.91;;;12.03;68.00
70407;BME280;57821;52.202;0.154;2024-03-22T01:50:51;101875.38;;;12.06;67.34
70407;BME280;57821;52.202;0.154;2024-03-22T01:53:18;101864.94;;;11.99;67.37
70407;BME280;57821;52.202;0.154;2024-03-22T01:55:44;101886.66;;;12.07;67.50
70407;BME280;57821;52.202;0.154;2024-03-22T01:58:09;101871.94;;;12.07;67.12
70407;BME280;57821;52.202;0.154;2024-03-22T02:00:35;101868.47;;;12.05;68.08
70407;BME280;57821;52.202;0.154;2024-03-22T02:03:01;101868.47;;;12.05;67.97
70407;BME280;57821;52.202;0.154;2024-03-22T02:05:27;101873.66;;;12.05;67.98
70407;BME280;57821;52.202;0.154;2024-03-22T02:07:53;101884.06;;;12.05;68.06
70407;BME280;57821;52.202;0.154;2024-03-22T02:10:19;101866.69;;;12.01;67.23
70407;BME280;57821;52.202;0.154;2024-03-22T02:12:44;101879.69;;;12.03;67.45
70407;BME280;57821;52.202;0.154;2024-03-22T02:18:26;101875.28;;;11.94;68.04
70407;BME280;57821;52.202;0.154;2024-03-22T02:20:52;101860.50;;;11.87;67.43
70407;BME280;57821;52.202;0.154;2024-03-22T02:23:34;101884.84;;;11.93;67.60
70407;BME280;57821;52.202;0.154;2024-03-22T02:26:04;101880.47;;;11.91;67.89
70407;BME280;57821;52.202;0.154;2024-03-22T02:28:32;101873.47;;;11.84;68.09
70407;BME280;57821;52.202;0.154;2024-03-22T02:30:59;101883.06;;;11.91;68.00
70407;BME280;57821;52.202;0.154;2024-03-22T02:33:26;101857.84;;;11.82;68.17
70407;BME280;57821;52.202;0.154;2024-03-22T02:35:53;101862.22;;;11.85;68.50
70407;BME280;57821;52.202;0.154;2024-03-22T02:38:20;101848.31;;;11.80;68.96
70407;BME280;57821;52.202;0.154;2024-03-22T02:40:51;101851.78;;;11.79;68.51
70407;BME280;57821;52.202;0.154;2024-03-22T02:43:21;101857.00;;;11.83;68.62
70407;BME280;57821;52.202;0.154;2024-03-22T02:45:50;101856.13;;;11.80;69.44
70407;BME280;57821;52.202;0.154;2024-03-22T02:48:20;101854.38;;;11.79;69.15
70407;BME280;57821;52.202;0.154;2024-03-22T02:50:46;101850.91;;;11.80;69.40
70407;BME280;57821;52.202;0.154;2024-03-22T02:53:13;101850.88;;;11.77;69.59
70407;BME280;57821;52.202;0.154;2024-03-22T02:55:40;101857.88;;;11.81;69.94
70407;BME280;57821;52.202;0.154;2024-03-22T02:58:06;101852.66;;;11.81;69.48
70407;BME280;57821;52.202;0.154;2024-03-22T03:00:36;101849.16;;;11.79;70.25
70407;BME280;57821;52.202;0.154;2024-03-22T03:03:07;101834.47;;;11.79;69.82
70407;BME280;57821;52.202;0.154;2024-03-22T03:05:33;101841.38;;;11.79;70.78
70407;BME280;57821;52.202;0.154;2024-03-22T03:07:58;101824.03;;;11.75;70.88
70407;BME280;57821;52.202;0.154;2024-03-22T03:10:24;101818.81;;;11.73;70.87
70407;BME280;57821;52.202;0.154;2024-03-22T03:12:50;101814.50;;;11.74;70.86
70407;BME280;57821;52.202;0.154;2024-03-22T03:15:16;101812.72;;;11.73;71.61
70407;BME280;57821;52.202;0.154;2024-03-22T03:17:41;101813.63;;;11.73;71.79
70407;BME280;57821;52.202;0.154;2024-03-22T03:20:07;101810.13;;;11.73;72.23
70407;BME280;57821;52.202;0.154;2024-03-22T03:22:36;101805.75;;;11.72;71.74
70407;BME280;57821;52.202;0.154;2024-03-22T03:25:03;101792.78;;;11.70;72.57
70407;BME280;57821;52.202;0.154;2024-03-22T03:27:30;101795.38;;;11.69;72.18
70407;BME280;57821;52.202;0.154;2024-03-22T03:29:56;101791.91;;;11.68;72.26
70407;BME280;57821;52.202;0.154;2024-03-22T03:32:21;101777.16;;;11.67;73.18
70407;BME280;57821;52.202;0.154;2024-03-22T03:34:47;101787.56;;;11.67;73.09
70407;BME280;57821;52.202;0.154;2024-03-22T03:37:14;101789.28;;;11.67;73.14
70407;BME280;57821;52.202;0.154;2024-03-22T03:39:39;101793.59;;;11.66;73.56
70407;BME280;57821;52.202;0.154;2024-03-22T03:42:05;101797.06;;;11.67;73.23
70407;BME280;57821;52.202;0.154;2024-03-22T03:44:31;101799.66;;;11.67;72.85
70407;BME280;57821;52.202;0.154;2024-03-22T03:46:57;101808.34;;;11.67;73.48
70407;BME280;57821;52.202;0.154;2024-03-22T03:49:22;101809.19;;;11.66;73.62
70407;BME280;57821;52.202;0.154;2024-03-22T03:51:48;101818.72;;;11.67;73.82
70407;BME280;57821;52.202;0.154;2024-03-22T03:54:15;101809.22;;;11.68;74.14
70407;BME280;57821;52.202;0.154;2024-03-22T03:56:41;101808.34;;;11.69;74.04
70407;BME280;57821;52.202;0.154;2024-03-22T03:59:06;101801.41;;;11.68;73.52
70407;BME280;57821;52.202;0.154;2024-03-22T04:01:32;101797.06;;;11.67;74.23
70407;BME280;57821;52.202;0.154;2024-03-22T04:03:58;101798.81;;;11.68;74.28
70407;BME280;57821;52.202;0.154;2024-03-22T04:06:24;101793.63;;;11.68;74.11
70407;BME280;57821;52.202;0.154;2024-03-22T04:08:49;101797.97;;;11.69;73.96
70407;BME280;57821;52.202;0.154;2024-03-22T04:11:15;101805.75;;;11.69;74.39
70407;BME280;57821;52.202;0.154;2024-03-22T04:13:41;101799.69;;;11.68;73.75
70407;BME280;57821;52.202;0.154;2024-03-22T04:16:07;101794.50;;;11.70;74.66
70407;BME280;57821;52.202;0.154;2024-03-22T04:18:33;101789.31;;;11.68;74.67
70407;BME280;57821;52.202;0.154;2024-03-22T04:20:59;101788.44;;;11.68;74.26
70407;BME280;57821;52.202;0.154;2024-03-22T04:23:25;101792.75;;;11.67;74.20
70407;BME280;57821;52.202;0.154;2024-03-22T04:25:54;101797.97;;;11.69;75.20
70407;BME280;57821;52.202;0.154;2024-03-22T04:28:20;101793.63;;;11.68;75.01
70407;BME280;57821;52.202;0.154;2024-03-22T04:30:59;101794.50;;;11.70;75.44
70407;BME280;57821;52.202;0.154;2024-03-22T04:33:26;101795.38;;;11.72;74.35
70407;BME280;57821;52.202;0.154;2024-03-22T04:35:53;101791.06;;;11.72;74.55
70407;BME280;57821;52.202;0.154;2024-03-22T04:38:19;101791.91;;;11.73;75.39
70407;BME280;57821;52.202;0.154;2024-03-22T04:40:44;101800.63;;;11.73;75.52
70407;BME280;57821;52.202;0.154;2024-03-22T04:43:10;101798.03;;;11.73;75.32
70407;BME280;57821;52.202;0.154;2024-03-22T04:45:36;101802.31;;;11.73;75.66
70407;BME280;57821;52.202;0.154;2024-03-22T04:48:03;101791.97;;;11.74;75.35
70407;BME280;57821;52.202;0.154;2024-03-22T04:50:30;101800.66;;;11.75;75.20
70407;BME280;57821;52.202;0.154;2024-03-22T04:52:56;101792.84;;;11.75;75.94
70407;BME280;57821;52.202;0.154;2024-03-22T04:55:22;101792.00;;;11.76;75.51
70407;BME280;57821;52.202;0.154;2024-03-22T04:57:48;101790.25;;;11.75;75.81
70407;BME280;57821;52.202;0.154;2024-03-22T05:00:14;101785.03;;;11.73;76.37
70407;BME280;57821;52.202;0.154;2024-03-22T05:02:40;101790.28;;;11.76;76.38
70407;BME280;57821;52.202;0.154;2024-03-22T05:05:06;101792.00;;;11.77;76.40
70407;BME280;57821;52.202;0.154;2024-03-22T05:07:34;101785.06;;;11.78;75.98
70407;BME280;57821;52.202;0.154;2024-03-22T05:09:59;101779.88;;;11.78;76.27
70407;BME280;57821;52.202;0.154;2024-03-22T05:12:25;101784.22;;;11.79;76.06
70407;BME280;57821;52.202;0.154;2024-03-22T05:14:51;101775.53;;;11.77;76.67
70407;BME280;57821;52.202;0.154;2024-03-22T05:17:16;101779.03;;;11.80;76.23
70407;BME280;57821;52.202;0.154;2024-03-22T05:19:42;101773.81;;;11.79;76.84
70407;BME280;57821;52.202;0.154;2024-03-22T05:22:08;101782.50;;;11.81;76.70
70407;BME280;57821;52.202;0.154;2024-03-22T05:24:34;101781.66;;;11.82;76.91
70407;BME280;57821;52.202;0.154;2024-03-22T05:26:59;101777.31;;;11.81;76.78
70407;BME280;57821;52.202;0.154;2024-03-22T05:29:25;101786.84;;;11.82;76.58
70407;BME280;57821;52.202;0.154;2024-03-22T05:31:51;101781.66;;;11.82;76.91
70407;BME280;57821;52.202;0.154;2024-03-22T05:34:18;101787.69;;;11.82;77.16
70407;BME280;57821;52.202;0.154;2024-03-22T05:36:45;101783.38;;;11.83;76.93
70407;BME280;57821;52.202;0.154;2024-03-22T05:39:10;101781.66;;;11.83;77.04
70407;BME280;57821;52.202;0.154;2024-03-22T05:41:37;101783.38;;;11.83;76.80
70407;BME280;57821;52.202;0.154;2024-03-22T05:44:03;101779.03;;;11.83;77.28
70407;BME280;57821;52.202;0.154;2024-03-22T05:46:29;101785.13;;;11.84;77.11
70407;BME280;57821;52.202;0.154;2024-03-22T05:48:57;101780.78;;;11.84;77.63
70407;BME280;57821;52.202;0.154;2024-03-22T05:51:23;101777.31;;;11.84;77.55
70407;BME280;57821;52.202;0.154;2024-03-22T05:53:48;101774.75;;;11.87;77.93
70407;BME280;57821;52.202;0.154;2024-03-22T05:56:14;101771.31;;;11.88;77.93
70407;BME280;57821;52.202;0.154;2024-03-22T05:58:40;101774.75;;;11.87;77.83
70407;BME280;57821;52.202;0.154;2024-03-22T06:01:05;101769.56;;;11.87;78.16
70407;BME280;57821;52.202;0.154;2024-03-22T06:03:32;101773.88;;;11.86;78.67
70407;BME280;57821;52.202;0.154;2024-03-22T06:05:59;101766.94;;;11.88;78.83
70407;BME280;57821;52.202;0.154;2024-03-22T06:08:26;101771.31;;;11.91;78.47
70407;BME280;57821;52.202;0.154;2024-03-22T06:10:52;101760.91;;;11.91;78.40
70407;BME280;57821;52.202;0.154;2024-03-22T06:13:18;101761.78;;;11.94;78.86
70407;BME280;57821;52.202;0.154;2024-03-22T06:15:44;101762.66;;;11.95;79.36
70407;BME280;57821;52.202;0.154;2024-03-22T06:18:12;101761.81;;;11.96;78.71
70407;BME280;57821;52.202;0.154;2024-03-22T06:20:38;101771.34;;;11.97;78.93
70407;BME280;57821;52.202;0.154;2024-03-22T06:23:04;101762.66;;;11.95;78.82
70407;BME280;57821;52.202;0.154;2024-03-22T06:25:30;101771.34;;;11.97;79.66
70407;BME280;57821;52.202;0.154;2024-03-22T06:27:55;101768.75;;;11.96;79.66
70407;BME280;57821;52.202;0.154;2024-03-22T06:30:21;101773.06;;;11.95;79.39
70407;BME280;57821;52.202;0.154;2024-03-22T06:32:47;101787.78;;;11.94;80.33
70407;BME280;57821;52.202;0.154;2024-03-22T06:35:13;101786.91;;;11.94;79.67
70407;BME280;57821;52.202;0.154;2024-03-22T06:37:40;101790.41;;;11.93;79.81
70407;BME280;57821;52.202;0.154;2024-03-22T06:40:07;101780.84;;;11.90;80.41
70407;BME280;57821;52.202;0.154;2024-03-22T06:42:32;101788.66;;;11.92;79.82
70407;BME280;57821;52.202;0.154;2024-03-22T06:44:58;101786.91;;;11.91;80.51
70407;BME280;57821;52.202;0.154;2024-03-22T06:47:24;101790.34;;;11.90;80.60
70407;BME280;57821;52.202;0.154;2024-03-22T06:49:50;101781.69;;;11.88;81.38
70407;BME280;57821;52.202;0.154;2024-03-22T06:52:15;101785.16;;;11.87;80.92
70407;BME280;57821;52.202;0.154;2024-03-22T06:54:41;101757.41;;;11.86;81.06
70407;BME280;57821;52.202;0.154;2024-03-22T06:57:07;101751.38;;;11.87;81.63
70407;BME280;57821;52.202;0.154;2024-03-22T06:59:32;101755.72;;;11.88;81.73
70407;BME280;57821;52.202;0.154;2024-03-22T07:01:58;101758.28;;;11.89;81.29
70407;BME280;57821;52.202;0.154;2024-03-22T07:04:24;101753.97;;;11.90;81.37
70407;BME280;57821;52.202;0.154;2024-03-22T07:06:50;101773.88;;;11.89;81.38
70407;BME280;57821;52.202;0.154;2024-03-22T07:09:15;101766.13;;;11.91;81.67
70407;BME280;57821;52.202;0.154;2024-03-22T07:11:41;101767.84;;;11.92;82.30
70407;BME280;57821;52.202;0.154;2024-03-22T07:14:07;101764.38;;;11.94;81.68
70407;BME280;57821;52.202;0.154;2024-03-22T07:16:33;101758.38;;;11.99;82.05
70407;BME280;57821;52.202;0.154;2024-03-22T07:18:59;101754.06;;;11.99;81.64
70407;BME280;57821;52.202;0.154;2024-03-22T07:21:24;101753.16;;;11.97;81.39
70407;BME280;57821;52.202;0.154;2024-03-22T07:23:50;101758.38;;;11.99;80.98
70407;BME280;57821;52.202;0.154;2024-03-22T07:26:16;101756.63;;;11.98;81.62
70407;BME280;57821;52.202;0.154;2024-03-22T07:28:42;101762.69;;;11.98;81.45
70407;BME280;57821;52.202;0.154;2024-03-22T07:31:07;101754.06;;;11.99;81.45
70407;BME280;57821;52.202;0.154;2024-03-22T07:33:33;101752.31;;;12.01;80.79
70407;BME280;57821;52.202;0.154;2024-03-22T07:36:03;101754.94;;;12.03;80.92
70407;BME280;57821;52.202;0.154;2024-03-22T07:38:28;101759.28;;;12.07;80.61
70407;BME280;57821;52.202;0.154;2024-03-22T07:40:54;101754.13;;;12.10;80.33
70407;BME280;57821;52.202;0.154;2024-03-22T07:43:20;101754.13;;;12.11;80.29
70407;BME280;57821;52.202;0.154;2024-03-22T07:45:45;101767.16;;;12.16;80.57
70407;BME280;57821;52.202;0.154;2024-03-22T07:48:11;101769.72;;;12.17;80.37
70407;BME280;57821;52.202;0.154;2024-03-22T07:50:37;101762.81;;;12.19;79.30
70407;BME280;57821;52.202;0.154;2024-03-22T07:53:03;101762.84;;;12.22;79.58
70407;BME280;57821;52.202;0.154;2024-03-22T07:55:28;101766.31;;;12.21;79.34
70407;BME280;57821;52.202;0.154;2024-03-22T07:57:54;101768.03;;;12.24;78.89
70407;BME280;57821;52.202;0.154;2024-03-22T08:00:20;101781.94;;;12.27;78.31
70407;BME280;57821;52.202;0.154;2024-03-22T08:02:45;101770.69;;;12.31;79.07
70407;BME280;57821;52.202;0.154;2024-03-22T08:05:11;101781.97;;;12.37;78.48
70407;BME280;57821;52.202;0.154;2024-03-22T08:07:37;101779.44;;;12.44;78.18
70407;BME280;57821;52.202;0.154;2024-03-22T08:10:03;101781.19;;;12.50;78.51
70407;BME280;57821;52.202;0.154;2024-03-22T08:12:30;101779.50;;;12.56;78.29
70407;BME280;57821;52.202;0.154;2024-03-22T08:14:55;101779.50;;;12.64;77.56
70407;BME280;57821;52.202;0.154;2024-03-22T08:17:21;101770.88;;;12.69;77.51
70407;BME280;57821;52.202;0.154;2024-03-22T08:19:47;101772.63;;;12.76;76.96
70407;BME280;57821;52.202;0.154;2024-03-22T08:22:13;101780.47;;;12.81;77.50
70407;BME280;57821;52.202;0.154;2024-03-22T08:24:39;101782.22;;;12.87;77.11
70407;BME280;57821;52.202;0.154;2024-03-22T08:27:05;101777.00;;;12.91;76.02
70407;BME280;57821;52.202;0.154;2024-03-22T08:29:31;101771.81;;;12.94;75.98
70407;BME280;57821;52.202;0.154;2024-03-22T08:31:56;101775.28;;;12.99;75.75
70407;BME280;57821;52.202;0.154;2024-03-22T08:34:23;101784.00;;;13.04;75.58
70407;BME280;57821;52.202;0.154;2024-03-22T08:36:49;101782.28;;;13.09;74.97
70407;BME280;57821;52.202;0.154;2024-03-22T08:39:14;101782.28;;;13.12;74.42
70407;BME280;57821;52.202;0.154;2024-03-22T08:41:41;101785.78;;;13.18;74.07
70407;BME280;57821;52.202;0.154;2024-03-22T08:44:07;101779.72;;;13.23;73.32
70407;BME280;57821;52.202;0.154;2024-03-22T08:46:32;101777.13;;;13.28;73.72
70407;BME280;57821;52.202;0.154;2024-03-22T08:48:58;101785.81;;;13.34;72.50
70407;BME280;57821;52.202;0.154;2024-03-22T08:51:25;101780.63;;;13.39;72.28
70407;BME280;57821;52.202;0.154;2024-03-22T08:53:51;101778.00;;;13.43;72.10
70407;BME280;57821;52.202;0.154;2024-03-22T08:56:17;101780.59;;;13.48;71.63
70407;BME280;57821;52.202;0.154;2024-03-22T08:58:43;101781.47;;;13.53;71.38
70407;BME280;57821;52.202;0.154;2024-03-22T09:01:08;101784.97;;;13.55;71.24
70407;BME280;57821;52.202;0.154;2024-03-22T09:03:36;101792.78;;;13.55;70.63
70407;BME280;57821;52.202;0.154;2024-03-22T09:06:02;101797.13;;;13.59;70.40
70407;BME280;57821;52.202;0.154;2024-03-22T09:08:28;101792.78;;;13.61;69.99
70407;BME280;57821;52.202;0.154;2024-03-22T09:10:55;101784.97;;;13.60;69.77
70407;BME280;57821;52.202;0.154;2024-03-22T09:13:20;101789.31;;;13.59;69.94
70407;BME280;57821;52.202;0.154;2024-03-22T09:15:46;101795.38;;;13.61;70.75
70407;BME280;57821;52.202;0.154;2024-03-22T09:18:13;101789.31;;;13.59;70.15
70407;BME280;57821;52.202;0.154;2024-03-22T09:20:38;101786.69;;;13.59;69.85
70407;BME280;57821;52.202;0.154;2024-03-22T09:23:04;101785.81;;;13.57;69.79
70407;BME280;57821;52.202;0.154;2024-03-22T09:25:30;101784.94;;;13.58;69.90
70407;BME280;57821;52.202;0.154;2024-03-22T09:27:55;101791.91;;;13.57;68.87
70407;BME280;57821;52.202;0.154;2024-03-22T09:30:21;101793.66;;;13.60;69.19
70407;BME280;57821;52.202;0.154;2024-03-22T09:32:47;101788.41;;;13.63;69.69
70407;BME280;57821;52.202;0.154;2024-03-22T09:35:13;101793.66;;;13.66;69.47
70407;BME280;57821;52.202;0.154;2024-03-22T09:37:40;101794.53;;;13.67;69.45
70407;BME280;57821;52.202;0.154;2024-03-22T09:40:06;101787.56;;;13.66;69.83
70407;BME280;57821;52.202;0.154;2024-03-22T09:42:33;101784.97;;;13.63;70.27
70407;BME280;57821;52.202;0.154;2024-03-22T09:45:03;101791.03;;;13.60;71.10
70407;BME280;57821;52.202;0.154;2024-03-22T09:47:29;101788.44;;;13.55;71.42
70407;BME280;57821;52.202;0.154;2024-03-22T09:49:55;101791.06;;;13.51;72.06
70407;BME280;57821;52.202;0.154;2024-03-22T09:52:22;101784.94;;;13.46;72.38
70407;BME280;57821;52.202;0.154;2024-03-22T09:54:48;101784.06;;;13.41;73.02
70407;BME280;57821;52.202;0.154;2024-03-22T09:57:17;101791.88;;;13.36;73.41
70407;BME280;57821;52.202;0.154;2024-03-22T09:59:44;101785.81;;;13.33;73.21
70407;BME280;57821;52.202;0.154;2024-03-22T10:02:12;101787.53;;;13.31;73.78
70407;BME280;57821;52.202;0.154;2024-03-22T10:04:39;101782.34;;;13.28;74.25
70407;BME280;57821;52.202;0.154;2024-03-22T10:07:06;101783.19;;;13.28;74.46
70407;BME280;57821;52.202;0.154;2024-03-22T10:09:33;101773.66;;;13.27;74.25
70407;BME280;57821;52.202;0.154;2024-03-22T10:11:59;101771.91;;;13.31;74.67
70407;BME280;57821;52.202;0.154;2024-03-22T10:14:25;101784.06;;;13.32;73.40
70407;BME280;57821;52.202;0.154;2024-03-22T10:16:52;101776.25;;;13.30;73.59
70407;BME280;57821;52.202;0.154;2024-03-22T10:19:21;101778.00;;;13.30;73.54
70407;BME280;57821;52.202;0.154;2024-03-22T10:21:47;101773.63;;;13.29;73.03
70407;BME280;57821;52.202;0.154;2024-03-22T10:24:14;101767.56;;;13.30;72.68
70407;BME280;57821;52.202;0.154;2024-03-22T10:26:39;101775.38;;;13.31;72.76
70407;BME280;57821;52.202;0.154;2024-03-22T10:29:06;101782.34;;;13.31;71.97
70407;BME280;57821;52.202;0.154;2024-03-22T10:31:34;101781.44;;;13.29;72.35
70407;BME280;57821;52.202;0.154;2024-03-22T10:34:02;101778.00;;;13.27;71.01
70407;BME280;57821;52.202;0.154;2024-03-22T10:36:29;101769.31;;;13.31;70.70
70407;BME280;57821;52.202;0.154;2024-03-22T10:38:57;101777.13;;;13.29;70.72
70407;BME280;57821;52.202;0.154;2024-03-22T10:41:25;101775.41;;;13.27;69.82
70407;BME280;57821;52.202;0.154;2024-03-22T10:43:51;101786.69;;;13.27;69.91
70407;BME280;57821;52.202;0.154;2024-03-22T10:46:19;101780.56;;;13.24;68.90
70407;BME280;57821;52.202;0.154;2024-03-22T10:48:46;101785.81;;;13.25;68.62
70407;BME280;57821;52.202;0.154;2024-03-22T10:51:13;101790.16;;;13.26;67.75
70407;BME280;57821;52.202;0.154;2024-03-22T10:53:41;101780.59;;;13.27;66.90
70407;BME280;57821;52.202;0.154;2024-03-22T10:56:07;101780.59;;;13.27;66.74
70407;BME280;57821;52.202;0.154;2024-03-22T10:58:39;101774.50;;;13.25;66.14
70407;BME280;57821;52.202;0.154;2024-03-22T11:01:05;101772.78;;;13.27;65.62
70407;BME280;57821;52.202;0.154;2024-03-22T11:03:31;101770.19;;;13.27;64.80
70407;BME280;57821;52.202;0.154;2024-03-22T11:05:59;101767.56;;;13.25;64.94
70407;BME280;57821;52.202;0.154;2024-03-22T11:08:29;101766.69;;;13.23;64.04
70407;BME280;57821;52.202;0.154;2024-03-22T11:11:09;101764.94;;;13.24;63.58
70407;BME280;57821;52.202;0.154;2024-03-22T11:13:36;101766.72;;;13.28;63.78
70407;BME280;57821;52.202;0.154;2024-03-22T11:16:02;101770.16;;;13.28;63.15
70407;BME280;57821;52.202;0.154;2024-03-22T11:18:28;101764.97;;;13.30;61.90
70407;BME280;57821;52.202;0.154;2024-03-22T11:20:53;101762.38;;;13.33;62.13
70407;BME280;57821;52.202;0.154;2024-03-22T11:23:19;101769.28;;;13.34;62.11
70407;BME280;57821;52.202;0.154;2024-03-22T11:25:45;101765.84;;;13.33;60.89
70407;BME280;57821;52.202;0.154;2024-03-22T11:28:11;101758.00;;;13.29;59.87
70407;BME280;57821;52.202;0.154;2024-03-22T11:30:37;101767.56;;;13.30;60.32
70407;BME280;57821;52.202;0.154;2024-03-22T11:33:04;101768.44;;;13.32;60.35
70407;BME280;57821;52.202;0.154;2024-03-22T11:35:31;101753.69;;;13.32;59.68
70407;BME280;57821;52.202;0.154;2024-03-22T11:37:57;101765.84;;;13.32;59.81
70407;BME280;57821;52.202;0.154;2024-03-22T11:40:25;101763.25;;;13.33;60.13
70407;BME280;57821;52.202;0.154;2024-03-22T11:42:52;101768.44;;;13.36;60.07
70407;BME280;57821;52.202;0.154;2024-03-22T11:45:20;101769.31;;;13.41;59.52
70407;BME280;57821;52.202;0.154;2024-03-22T11:47:48;101766.72;;;13.43;59.03
70407;BME280;57821;52.202;0.154;2024-03-22T11:50:14;101764.13;;;13.44;59.22
70407;BME280;57821;52.202;0.154;2024-03-22T11:52:44;101763.25;;;13.48;59.53
70407;BME280;57821;52.202;0.154;2024-03-22T11:55:13;101759.75;;;13.52;59.42
70407;BME280;57821;52.202;0.154;2024-03-22T11:57:38;101771.06;;;13.59;59.68
70407;BME280;57821;52.202;0.154;2024-03-22T12:00:05;101757.16;;;13.60;58.73
70407;BME280;57821;52.202;0.154;2024-03-22T12:02:38;101754.56;;;13.60;58.52
70407;BME280;57821;52.202;0.154;2024-03-22T12:05:04;101771.06;;;13.61;58.35
70407;BME280;57821;52.202;0.154;2024-03-22T12:07:31;101758.91;;;13.61;58.75
70407;BME280;57821;52.202;0.154;2024-03-22T12:09:57;101753.69;;;13.61;58.54
70407;BME280;57821;52.202;0.154;2024-03-22T12:12:23;101751.97;;;13.66;57.87
70407;BME280;57821;52.202;0.154;2024-03-22T12:14:49;101751.06;;;13.70;57.97
70407;BME280;57821;52.202;0.154;2024-03-22T12:17:18;101745.00;;;13.71;57.71
70407;BME280;57821;52.202;0.154;2024-03-22T12:19:44;101735.44;;;13.72;57.39
70407;BME280;57821;52.202;0.154;2024-03-22T12:22:10;101731.97;;;13.70;57.09
70407;BME280;57821;52.202;0.154;2024-03-22T12:24:36;101736.31;;;13.71;57.12
70407;BME280;57821;52.202;0.154;2024-03-22T12:27:03;101731.97;;;13.71;57.41
70407;BME280;57821;52.202;0.154;2024-03-22T12:29:29;101740.66;;;13.76;57.25
70407;BME280;57821;52.202;0.154;2024-03-22T12:31:57;101738.91;;;13.80;56.83
70407;BME280;57821;52.202;0.154;2024-03-22T12:34:23;101725.88;;;13.80;56.92
70407;BME280;57821;52.202;0.154;2024-03-22T12:36:48;101728.47;;;13.75;56.07
70407;BME280;57821;52.202;0.154;2024-03-22T12:39:14;101725.03;;;13.73;56.48
70407;BME280;57821;52.202;0.154;2024-03-22T12:41:40;101722.41;;;13.73;56.21
70407;BME280;57821;52.202;0.154;2024-03-22T12:44:06;101716.34;;;13.74;56.39
70407;BME280;57821;52.202;0.154;2024-03-22T12:46:31;101730.22;;;13.76;56.41
70407;BME280;57821;52.202;0.154;2024-03-22T12:48:57;101719.78;;;13.81;56.22
70407;BME280;57821;52.202;0.154;2024-03-22T12:51:23;101718.03;;;13.87;55.50